Ramore, Canada
Current Conditions -  °F | °C
As of 4:00 AM on Wednesday 26 Nov 2014 (Local Time) from CYTS Reporting Station
Broken Clouds Broken Clouds  
Wind Chill:   Ceiling: 2900
Heat Index: 12°   Visibility: 15mi
Dew Point:   Wind: 5mph
Humidity: 85%   Direction: 190°S
Pressure: 30.14"   Gusts: NA
Location:  48.42°N, 80.32°W
Report Text: CYTS 260900Z 19004KT 15SM BKN029 M11/M13 A3014 RMK SC7 SLP232
Loading
Personal Weather Stations






























Interactive Weather Map New forecast layout! Learn more

10-Day Weather Forecast

Advertisements
Track Severe Weather on mobile